Fort Smith, Canada
Current Conditions -  °F | °C
As of 9:00 PM on Saturday 25 Oct 2014 (Local Time) from CYSM Reporting Station
Light Snow Light Snow  
Wind Chill: 21°   Ceiling: 1000
Heat Index: 27°   Visibility: 8mi
Dew Point: 23°   Wind: 5mph
Humidity: 86%   Direction: 70°ENE
Pressure: 29.91"   Gusts: NA
Location:  60.02°N, 111.89°W
Report Text: CYSM 260300Z 07004KT 8SM -SN OVC010 M03/M05 A2991 RMK ST8SLP145
Loading
Personal Weather Stations






























Interactive Weather Map
Tropical Storm Tracking
New forecast layout! Learn more

10-Day Weather Forecast

Advertisements
Track Severe Weather on mobile